Low Head, Tasmania

7:28 AM AEST on August 01, 2015 (GMT +1000)
Deviot | | Change Station
CLOSE
Current Station
Personal Weather Station
Location: Deviot, TASMANIA
Elevation: 56 ft
Nearby Weather Stations

Elev 56 ft 41.23 °S, 146.93 °E | Updated 9 seconds ago

Light Rain
Light Rain
46.4 °F
Feels Like 43 °F
N
7.6
Wind Variable Wind from West
Gusts 10.7 mph

Today
High -- | Low -- °F
--% Chance of Precip.
Yesterday
High -- | Low -- °F
Precip. -- in
7:20 AM 5:18 PM
Full, 100% visible
Pressure 29.50 in
Visibility 6.2 miles
Clouds Overcast 4500 ft
Overcast 5100 ft
Windchill 43 °F
Dew Point 43 °F
Humidity 87%
Rainfall 16.26 in
Snow Depth Not available.
UV 0 out of 12
Pollen Not available.
Air Quality Not available.
Flu Activity Not available.
METAR YMLT 312100Z AUTO 32017KT 9999 -RA OVC045 OVC051 08/06 Q0999 RERA

More Conditions Fewer Conditions

Pressure 29.50 in
Visibility 6.2 miles
Clouds Overcast 4500 ft
Overcast 5100 ft
Windchill 43 °F
Dew Point 43 °F
Humidity 87%
Rainfall 16.26 in
Snow Depth Not available.
UV 0 out of 12
Pollen Not available.
Air Quality Not available.
Flu Activity Not available.
METAR YMLT 312100Z AUTO 32017KT 9999 -RA OVC045 OVC051 08/06 Q0999 RERA

More Conditions Fewer Conditions

10-Day Weather Forecast

×

Almanac

Astronomy

Aug. 01, 2015 Rise Set
Actual Time
Civil Twilight
Nautical Twilight
Astronomical Twilight
Moon
Length of Visible Light
Length of Day
Tomorrow will be .
, % of the Moon is Illuminated

Today's Extremes

Country Highs Country Lows

Community

WunderPhotos

Upload Photos

1,842,750 photos uploaded!

WunderBlogs® & News

Nearby

Air Quality

  Air Quality AQ Index Pollutant
Not available.

Snow Depth

Station Depth Elevation

Earthquake Activity

City Distance Mag. Time & Date
Minimum magnitude displayed is 2.5.

Coastal Water Temperatures

Place Temperature

Stations

Nearby Weather Stations

Station Location Temp. Windchill Dew Point Humidity Wind Precip. Elev Updated Type